sensor_id;sensor_type;location;lat;lon;timestamp;pressure;altitude;pressure_sealevel;temperature;humidity
2841;BME280;53423;49.224;12.074;2023-04-23T00:00:52;97112.38;;;14.95;65.16
2841;BME280;53423;49.224;12.074;2023-04-23T00:03:24;97111.13;;;15.04;65.40
2841;BME280;53423;49.224;12.074;2023-04-23T00:05:53;97099.97;;;15.02;65.77
2841;BME280;53423;49.224;12.074;2023-04-23T00:08:25;97105.47;;;14.94;66.47
2841;BME280;53423;49.224;12.074;2023-04-23T00:10:53;97112.00;;;14.91;66.76
2841;BME280;53423;49.224;12.074;2023-04-23T00:13:22;97114.41;;;14.93;66.60
2841;BME280;53423;49.224;12.074;2023-04-23T00:15:52;97110.34;;;14.97;66.51
2841;BME280;53423;49.224;12.074;2023-04-23T00:18:20;97099.19;;;14.88;65.92
2841;BME280;53423;49.224;12.074;2023-04-23T00:20:48;97096.56;;;14.82;66.09
2841;BME280;53423;49.224;12.074;2023-04-23T00:23:16;97091.72;;;14.72;66.05
2841;BME280;53423;49.224;12.074;2023-04-23T00:25:44;97087.66;;;14.76;65.61
2841;BME280;53423;49.224;12.074;2023-04-23T00:28:12;97089.47;;;14.69;66.34
2841;BME280;53423;49.224;12.074;2023-04-23T00:30:40;97091.69;;;14.79;66.28
2841;BME280;53423;49.224;12.074;2023-04-23T00:33:09;97092.31;;;14.81;66.54
2841;BME280;53423;49.224;12.074;2023-04-23T00:35:37;97090.31;;;14.70;66.71
2841;BME280;53423;49.224;12.074;2023-04-23T00:38:05;97092.09;;;14.82;66.47
2841;BME280;53423;49.224;12.074;2023-04-23T00:40:33;97095.34;;;14.58;67.04
2841;BME280;53423;49.224;12.074;2023-04-23T00:43:02;97097.78;;;14.53;66.93
2841;BME280;53423;49.224;12.074;2023-04-23T00:45:29;97092.13;;;14.63;66.75
2841;BME280;53423;49.224;12.074;2023-04-23T00:47:57;97099.66;;;14.46;66.82
2841;BME280;53423;49.224;12.074;2023-04-23T00:50:27;97093.34;;;14.47;66.87
2841;BME280;53423;49.224;12.074;2023-04-23T00:52:55;97084.81;;;14.26;66.81
2841;BME280;53423;49.224;12.074;2023-04-23T00:55:23;97084.81;;;14.32;66.51
2841;BME280;53423;49.224;12.074;2023-04-23T00:57:51;97090.50;;;14.36;66.21
2841;BME280;53423;49.224;12.074;2023-04-23T01:00:19;97080.56;;;14.31;66.32
2841;BME280;53423;49.224;12.074;2023-04-23T01:02:48;97082.75;;;14.21;66.90
2841;BME280;53423;49.224;12.074;2023-04-23T01:05:19;97082.38;;;14.31;66.55
2841;BME280;53423;49.224;12.074;2023-04-23T01:07:51;97080.75;;;14.30;66.03
2841;BME280;53423;49.224;12.074;2023-04-23T01:10:19;97083.16;;;14.18;66.69
2841;BME280;53423;49.224;12.074;2023-04-23T01:12:47;97082.53;;;14.10;66.76
2841;BME280;53423;49.224;12.074;2023-04-23T01:15:15;97080.91;;;14.22;66.41
2841;BME280;53423;49.224;12.074;2023-04-23T01:17:43;97080.75;;;14.30;66.68
2841;BME280;53423;49.224;12.074;2023-04-23T01:20:12;97080.16;;;14.34;66.87
2841;BME280;53423;49.224;12.074;2023-04-23T01:22:41;97072.47;;;14.26;66.98
2841;BME280;53423;49.224;12.074;2023-04-23T01:25:09;97078.06;;;14.17;66.75
2841;BME280;53423;49.224;12.074;2023-04-23T01:27:37;97078.66;;;13.93;67.44
2841;BME280;53423;49.224;12.074;2023-04-23T01:30:06;97084.75;;;14.00;66.80
2841;BME280;53423;49.224;12.074;2023-04-23T01:32:35;97080.69;;;13.91;67.23
2841;BME280;53423;49.224;12.074;2023-04-23T01:35:04;97086.19;;;14.02;66.78
2841;BME280;53423;49.224;12.074;2023-04-23T01:37:34;97087.00;;;14.03;66.83
2841;BME280;53423;49.224;12.074;2023-04-23T01:40:07;97086.97;;;13.96;67.15
2841;BME280;53423;49.224;12.074;2023-04-23T01:42:35;97098.13;;;13.98;67.66
2841;BME280;53423;49.224;12.074;2023-04-23T01:45:04;97083.75;;;14.01;67.01
2841;BME280;53423;49.224;12.074;2023-04-23T01:47:34;97101.13;;;13.82;67.25
2841;BME280;53423;49.224;12.074;2023-04-23T01:50:02;97096.91;;;13.94;66.85
2841;BME280;53423;49.224;12.074;2023-04-23T01:52:30;97095.06;;;13.88;66.86
2841;BME280;53423;49.224;12.074;2023-04-23T01:54:58;97094.44;;;13.86;67.88
2841;BME280;53423;49.224;12.074;2023-04-23T01:57:29;97094.84;;;13.90;67.73
2841;BME280;53423;49.224;12.074;2023-04-23T02:00:02;97100.09;;;13.83;68.28
2841;BME280;53423;49.224;12.074;2023-04-23T02:02:33;97099.13;;;13.84;68.08
2841;BME280;53423;49.224;12.074;2023-04-23T02:05:02;97104.75;;;13.81;67.68
2841;BME280;53423;49.224;12.074;2023-04-23T02:07:32;97102.75;;;13.83;67.42
2841;BME280;53423;49.224;12.074;2023-04-23T02:10:00;97108.59;;;13.72;67.12
2841;BME280;53423;49.224;12.074;2023-04-23T02:12:30;97108.59;;;13.72;67.25
2841;BME280;53423;49.224;12.074;2023-04-23T02:14:58;97110.81;;;13.68;67.13
2841;BME280;53423;49.224;12.074;2023-04-23T02:17:27;97114.44;;;13.67;67.41
2841;BME280;53423;49.224;12.074;2023-04-23T02:19:55;97110.41;;;13.65;67.37
2841;BME280;53423;49.224;12.074;2023-04-23T02:22:23;97117.81;;;13.42;68.13
2841;BME280;53423;49.224;12.074;2023-04-23T02:24:52;97108.72;;;13.57;67.96
2841;BME280;53423;49.224;12.074;2023-04-23T02:27:20;97110.59;;;13.63;67.61
2841;BME280;53423;49.224;12.074;2023-04-23T02:29:50;97112.63;;;13.68;67.37
2841;BME280;53423;49.224;12.074;2023-04-23T02:32:19;97104.59;;;13.83;67.94
2841;BME280;53423;49.224;12.074;2023-04-23T02:34:47;97105.13;;;13.65;67.79
2841;BME280;53423;49.224;12.074;2023-04-23T02:37:14;97101.22;;;13.54;68.35
2841;BME280;53423;49.224;12.074;2023-04-23T02:39:42;97101.03;;;13.56;68.61
2841;BME280;53423;49.224;12.074;2023-04-23T02:42:10;97094.63;;;13.71;67.48
2841;BME280;53423;49.224;12.074;2023-04-23T02:44:38;97105.72;;;13.54;67.81
2841;BME280;53423;49.224;12.074;2023-04-23T02:47:08;97101.22;;;13.48;68.67
2841;BME280;53423;49.224;12.074;2023-04-23T02:49:36;97100.59;;;13.52;67.57
2841;BME280;53423;49.224;12.074;2023-04-23T02:52:04;97108.50;;;13.46;68.59
2841;BME280;53423;49.224;12.074;2023-04-23T02:54:32;97102.84;;;13.49;68.63
2841;BME280;53423;49.224;12.074;2023-04-23T02:57:00;97103.88;;;13.54;68.09
2841;BME280;53423;49.224;12.074;2023-04-23T02:59:28;97104.03;;;13.46;69.30
2841;BME280;53423;49.224;12.074;2023-04-23T03:01:56;97104.09;;;13.59;68.41
2841;BME280;53423;49.224;12.074;2023-04-23T03:04:25;97104.72;;;13.61;68.75
2841;BME280;53423;49.224;12.074;2023-04-23T03:06:53;97107.53;;;13.60;68.54
2841;BME280;53423;49.224;12.074;2023-04-23T03:09:21;97107.56;;;13.66;68.34
2841;BME280;53423;49.224;12.074;2023-04-23T03:11:49;97113.44;;;13.62;68.68
2841;BME280;53423;49.224;12.074;2023-04-23T03:14:16;97116.50;;;13.72;68.15
2841;BME280;53423;49.224;12.074;2023-04-23T03:16:44;97119.25;;;13.57;68.41
2841;BME280;53423;49.224;12.074;2023-04-23T03:19:13;97119.31;;;13.64;68.32
2841;BME280;53423;49.224;12.074;2023-04-23T03:21:42;97113.38;;;13.49;68.55
2841;BME280;53423;49.224;12.074;2023-04-23T03:24:12;97121.88;;;13.51;68.53
2841;BME280;53423;49.224;12.074;2023-04-23T03:26:40;97128.78;;;13.52;68.64
2841;BME280;53423;49.224;12.074;2023-04-23T03:29:08;97123.28;;;13.47;67.02
2841;BME280;53423;49.224;12.074;2023-04-23T03:31:36;97123.28;;;13.47;68.21
2841;BME280;53423;49.224;12.074;2023-04-23T03:34:04;97123.00;;;13.29;67.92
2841;BME280;53423;49.224;12.074;2023-04-23T03:36:32;97124.47;;;13.38;67.47
2841;BME280;53423;49.224;12.074;2023-04-23T03:39:01;97123.81;;;13.29;67.68
2841;BME280;53423;49.224;12.074;2023-04-23T03:41:29;97126.03;;;13.32;68.19
2841;BME280;53423;49.224;12.074;2023-04-23T03:43:57;97132.13;;;13.33;67.92
2841;BME280;53423;49.224;12.074;2023-04-23T03:46:25;97131.06;;;13.27;68.39
2841;BME280;53423;49.224;12.074;2023-04-23T03:48:53;97133.38;;;13.03;69.29
2841;BME280;53423;49.224;12.074;2023-04-23T03:51:21;97125.94;;;13.13;69.86
2841;BME280;53423;49.224;12.074;2023-04-23T03:53:49;97137.13;;;13.21;69.24
2841;BME280;53423;49.224;12.074;2023-04-23T03:56:18;97132.81;;;13.14;69.79
2841;BME280;53423;49.224;12.074;2023-04-23T03:58:46;97137.59;;;13.31;68.76
2841;BME280;53423;49.224;12.074;2023-04-23T04:01:14;97130.50;;;13.32;69.04
2841;BME280;53423;49.224;12.074;2023-04-23T04:03:42;97139.41;;;13.31;69.47
2841;BME280;53423;49.224;12.074;2023-04-23T04:06:10;97136.94;;;13.23;69.80
2841;BME280;53423;49.224;12.074;2023-04-23T04:08:38;97136.56;;;13.32;69.77
2841;BME280;53423;49.224;12.074;2023-04-23T04:11:06;97140.69;;;13.41;70.13
2841;BME280;53423;49.224;12.074;2023-04-23T04:13:35;97138.50;;;13.51;68.82
2841;BME280;53423;49.224;12.074;2023-04-23T04:16:04;97135.88;;;13.58;68.50
2841;BME280;53423;49.224;12.074;2023-04-23T04:18:32;97147.47;;;13.63;68.37
2841;BME280;53423;49.224;12.074;2023-04-23T04:21:00;97142.81;;;13.65;68.40
2841;BME280;53423;49.224;12.074;2023-04-23T04:23:28;97143.19;;;13.62;67.87
2841;BME280;53423;49.224;12.074;2023-04-23T04:25:56;97141.72;;;13.47;68.17
2841;BME280;53423;49.224;12.074;2023-04-23T04:28:25;97142.34;;;13.49;67.11
2841;BME280;53423;49.224;12.074;2023-04-23T04:30:54;97141.78;;;13.60;66.83
2841;BME280;53423;49.224;12.074;2023-04-23T04:33:23;97150.50;;;13.60;65.71
2841;BME280;53423;49.224;12.074;2023-04-23T04:35:51;97148.31;;;13.70;65.57
2841;BME280;53423;49.224;12.074;2023-04-23T04:38:20;97149.75;;;13.80;65.58
2841;BME280;53423;49.224;12.074;2023-04-23T04:40:48;97148.34;;;13.84;65.43
2841;BME280;53423;49.224;12.074;2023-04-23T04:43:16;97146.75;;;13.89;65.44
2841;BME280;53423;49.224;12.074;2023-04-23T04:45:44;97157.72;;;13.99;65.41
2841;BME280;53423;49.224;12.074;2023-04-23T04:48:13;97147.41;;;14.04;64.98
2841;BME280;53423;49.224;12.074;2023-04-23T04:50:41;97150.84;;;14.11;64.74
2841;BME280;53423;49.224;12.074;2023-04-23T04:53:09;97142.94;;;14.11;64.10
2841;BME280;53423;49.224;12.074;2023-04-23T04:55:37;97146.19;;;14.20;63.60
2841;BME280;53423;49.224;12.074;2023-04-23T04:58:05;97153.38;;;14.32;63.38
2841;BME280;53423;49.224;12.074;2023-04-23T05:00:33;97158.22;;;14.35;63.13
2841;BME280;53423;49.224;12.074;2023-04-23T05:03:01;97161.09;;;14.40;63.45
2841;BME280;53423;49.224;12.074;2023-04-23T05:05:31;97155.41;;;14.43;63.25
2841;BME280;53423;49.224;12.074;2023-04-23T05:07:59;97162.31;;;14.44;64.20
2841;BME280;53423;49.224;12.074;2023-04-23T05:10:28;97161.91;;;14.47;64.00
2841;BME280;53423;49.224;12.074;2023-04-23T05:12:56;97163.34;;;14.56;63.71
2841;BME280;53423;49.224;12.074;2023-04-23T05:15:24;97166.56;;;14.58;63.37
2841;BME280;53423;49.224;12.074;2023-04-23T05:17:52;97173.06;;;14.62;63.63
2841;BME280;53423;49.224;12.074;2023-04-23T05:20:20;97170.84;;;14.46;64.52
2841;BME280;53423;49.224;12.074;2023-04-23T05:22:49;97174.47;;;14.52;64.58
2841;BME280;53423;49.224;12.074;2023-04-23T05:25:17;97180.78;;;14.51;64.15
2841;BME280;53423;49.224;12.074;2023-04-23T05:27:45;97182.19;;;14.53;63.82
2841;BME280;53423;49.224;12.074;2023-04-23T05:30:13;97178.75;;;14.59;63.32
2841;BME280;53423;49.224;12.074;2023-04-23T05:32:41;97176.09;;;14.40;62.38
2841;BME280;53423;49.224;12.074;2023-04-23T05:35:09;97179.75;;;14.45;61.56
2841;BME280;53423;49.224;12.074;2023-04-23T05:37:37;97191.13;;;14.59;61.19
2841;BME280;53423;49.224;12.074;2023-04-23T05:40:07;97183.81;;;14.48;61.93
2841;BME280;53423;49.224;12.074;2023-04-23T05:42:35;97193.94;;;14.31;62.34
2841;BME280;53423;49.224;12.074;2023-04-23T05:45:04;97203.06;;;14.48;61.88
2841;BME280;53423;49.224;12.074;2023-04-23T05:47:34;97204.53;;;14.57;61.57
2841;BME280;53423;49.224;12.074;2023-04-23T05:50:04;97209.59;;;14.59;60.92
2841;BME280;53423;49.224;12.074;2023-04-23T05:52:34;97207.97;;;14.51;62.38
2841;BME280;53423;49.224;12.074;2023-04-23T05:55:03;97223.38;;;14.41;62.32
2841;BME280;53423;49.224;12.074;2023-04-23T05:57:33;97225.41;;;14.59;62.66
2841;BME280;53423;49.224;12.074;2023-04-23T06:00:01;97226.88;;;14.74;62.12
2841;BME280;53423;49.224;12.074;2023-04-23T06:02:29;97224.19;;;14.48;63.46
2841;BME280;53423;49.224;12.074;2023-04-23T06:04:59;97233.34;;;14.65;63.03
2841;BME280;53423;49.224;12.074;2023-04-23T06:07:27;97235.19;;;14.65;62.94
2841;BME280;53423;49.224;12.074;2023-04-23T06:09:55;97236.59;;;14.74;62.99
2841;BME280;53423;49.224;12.074;2023-04-23T06:12:23;97238.84;;;14.77;63.21
2841;BME280;53423;49.224;12.074;2023-04-23T06:14:52;97240.28;;;14.79;63.56
2841;BME280;53423;49.224;12.074;2023-04-23T06:17:20;97236.81;;;14.66;64.30
2841;BME280;53423;49.224;12.074;2023-04-23T06:19:48;97245.56;;;14.79;64.28
2841;BME280;53423;49.224;12.074;2023-04-23T06:22:16;97239.03;;;14.88;64.03
2841;BME280;53423;49.224;12.074;2023-04-23T06:24:44;97236.03;;;14.98;64.07
2841;BME280;53423;49.224;12.074;2023-04-23T06:27:12;97232.78;;;14.89;64.28
2841;BME280;53423;49.224;12.074;2023-04-23T06:29:40;97238.66;;;14.91;64.67
2841;BME280;53423;49.224;12.074;2023-04-23T06:32:09;97238.88;;;14.90;65.16
2841;BME280;53423;49.224;12.074;2023-04-23T06:34:37;97231.94;;;14.95;65.25
2841;BME280;53423;49.224;12.074;2023-04-23T06:37:25;97237.84;;;15.04;64.96
2841;BME280;53423;49.224;12.074;2023-04-23T06:39:55;97237.84;;;15.04;65.31
2841;BME280;53423;49.224;12.074;2023-04-23T06:42:23;97232.19;;;15.14;65.40
2841;BME280;53423;49.224;12.074;2023-04-23T06:44:51;97240.28;;;14.99;65.52
2841;BME280;53423;49.224;12.074;2023-04-23T06:47:20;97238.25;;;15.08;65.35
2841;BME280;53423;49.224;12.074;2023-04-23T06:49:48;97245.97;;;15.03;65.68
2841;BME280;53423;49.224;12.074;2023-04-23T06:52:16;97242.72;;;15.01;66.15
2841;BME280;53423;49.224;12.074;2023-04-23T06:54:43;97238.25;;;15.08;65.81
2841;BME280;53423;49.224;12.074;2023-04-23T06:57:11;97235.81;;;15.00;66.78
2841;BME280;53423;49.224;12.074;2023-04-23T06:59:39;97234.59;;;14.89;67.37
2841;BME280;53423;49.224;12.074;2023-04-23T07:02:07;97226.66;;;15.02;66.77
2841;BME280;53423;49.224;12.074;2023-04-23T07:04:36;97229.13;;;15.10;66.35
2841;BME280;53423;49.224;12.074;2023-04-23T07:07:04;97226.69;;;15.15;65.97
2841;BME280;53423;49.224;12.074;2023-04-23T07:09:33;97237.00;;;15.36;65.12
2841;BME280;53423;49.224;12.074;2023-04-23T07:12:01;97231.34;;;15.39;65.04
2841;BME280;53423;49.224;12.074;2023-04-23T07:14:28;97232.78;;;15.42;65.82
2841;BME280;53423;49.224;12.074;2023-04-23T07:16:57;97233.97;;;15.26;64.66
2841;BME280;53423;49.224;12.074;2023-04-23T07:19:25;97233.97;;;15.33;64.56
2841;BME280;53423;49.224;12.074;2023-04-23T07:21:54;97234.38;;;15.36;65.52
2841;BME280;53423;49.224;12.074;2023-04-23T07:24:22;97234.38;;;15.30;65.87
2841;BME280;53423;49.224;12.074;2023-04-23T07:26:52;97241.28;;;15.24;65.87
2841;BME280;53423;49.224;12.074;2023-04-23T07:29:21;97234.78;;;15.33;65.45
2841;BME280;53423;49.224;12.074;2023-04-23T07:31:49;97240.91;;;15.40;64.90
2841;BME280;53423;49.224;12.074;2023-04-23T07:34:17;97243.31;;;15.22;65.14
2841;BME280;53423;49.224;12.074;2023-04-23T07:36:44;97242.50;;;15.35;65.16
2841;BME280;53423;49.224;12.074;2023-04-23T07:39:14;97236.19;;;15.29;66.68
2841;BME280;53423;49.224;12.074;2023-04-23T07:41:42;97240.06;;;15.33;66.29
2841;BME280;53423;49.224;12.074;2023-04-23T07:44:10;97242.91;;;15.12;66.00
2841;BME280;53423;49.224;12.074;2023-04-23T07:46:38;97243.53;;;15.21;66.18
2841;BME280;53423;49.224;12.074;2023-04-23T07:49:06;97242.94;;;15.25;65.92
2841;BME280;53423;49.224;12.074;2023-04-23T07:51:34;97240.69;;;15.09;66.86
2841;BME280;53423;49.224;12.074;2023-04-23T07:54:02;97243.13;;;15.24;65.95
2841;BME280;53423;49.224;12.074;2023-04-23T07:56:31;97241.47;;;15.29;66.18
2841;BME280;53423;49.224;12.074;2023-04-23T07:58:59;97233.78;;;15.21;67.22
2841;BME280;53423;49.224;12.074;2023-04-23T08:01:27;97246.78;;;15.16;67.52
2841;BME280;53423;49.224;12.074;2023-04-23T08:03:56;97250.41;;;14.69;68.80
2841;BME280;53423;49.224;12.074;2023-04-23T08:06:26;97261.28;;;14.40;70.26
2841;BME280;53423;49.224;12.074;2023-04-23T08:08:55;97260.03;;;14.30;70.25
2841;BME280;53423;49.224;12.074;2023-04-23T08:11:23;97252.81;;;14.51;69.57
2841;BME280;53423;49.224;12.074;2023-04-23T08:13:52;97257.66;;;14.41;69.83
2841;BME280;53423;49.224;12.074;2023-04-23T08:16:20;97253.28;;;14.14;71.10
2841;BME280;53423;49.224;12.074;2023-04-23T08:18:48;97246.72;;;14.51;70.04
2841;BME280;53423;49.224;12.074;2023-04-23T08:21:31;97241.78;;;14.35;70.84
2841;BME280;53423;49.224;12.074;2023-04-23T08:23:59;97249.13;;;14.39;70.13
2841;BME280;53423;49.224;12.074;2023-04-23T08:26:28;97244.06;;;14.44;70.07
2841;BME280;53423;49.224;12.074;2023-04-23T08:28:58;97241.53;;;14.23;71.42
2841;BME280;53423;49.224;12.074;2023-04-23T08:31:27;97242.25;;;14.51;70.44
2841;BME280;53423;49.224;12.074;2023-04-23T08:33:55;97233.75;;;14.69;69.75
2841;BME280;53423;49.224;12.074;2023-04-23T08:36:23;97238.81;;;14.70;69.88
2841;BME280;53423;49.224;12.074;2023-04-23T08:38:53;97239.25;;;14.93;68.68
2841;BME280;53423;49.224;12.074;2023-04-23T08:41:22;97245.84;;;14.31;70.53
2841;BME280;53423;49.224;12.074;2023-04-23T08:44:00;97236.84;;;14.19;70.77
2841;BME280;53423;49.224;12.074;2023-04-23T08:46:32;97237.22;;;14.09;71.35
2841;BME280;53423;49.224;12.074;2023-04-23T08:49:04;97242.06;;;14.46;70.37
2841;BME280;53423;49.224;12.074;2023-04-23T08:51:37;97236.59;;;14.54;70.43
2841;BME280;53423;49.224;12.074;2023-04-23T08:54:06;97232.34;;;14.60;69.74
2841;BME280;53423;49.224;12.074;2023-04-23T08:56:38;97229.09;;;14.58;69.27
2841;BME280;53423;49.224;12.074;2023-04-23T08:59:09;97231.13;;;14.82;69.01
2841;BME280;53423;49.224;12.074;2023-04-23T09:01:37;97224.22;;;14.74;68.81
2841;BME280;53423;49.224;12.074;2023-04-23T09:04:05;97238.25;;;14.94;68.05
2841;BME280;53423;49.224;12.074;2023-04-23T09:06:34;97230.69;;;14.52;70.06
2841;BME280;53423;49.224;12.074;2023-04-23T09:09:03;97238.19;;;14.49;70.72
2841;BME280;53423;49.224;12.074;2023-04-23T09:11:35;97237.97;;;14.37;70.41
2841;BME280;53423;49.224;12.074;2023-04-23T09:14:03;97233.78;;;14.15;70.54
2841;BME280;53423;49.224;12.074;2023-04-23T09:16:33;97221.41;;;14.03;70.72
2841;BME280;53423;49.224;12.074;2023-04-23T09:19:01;97225.66;;;14.10;70.71
2841;BME280;53423;49.224;12.074;2023-04-23T09:21:29;97237.00;;;14.51;69.71
2841;BME280;53423;49.224;12.074;2023-04-23T09:23:57;97231.09;;;14.49;69.82
2841;BME280;53423;49.224;12.074;2023-04-23T09:26:25;97214.00;;;14.26;70.21
2841;BME280;53423;49.224;12.074;2023-04-23T09:28:53;97214.63;;;14.34;70.01
2841;BME280;53423;49.224;12.074;2023-04-23T09:31:22;97206.75;;;14.60;69.91
2841;BME280;53423;49.224;12.074;2023-04-23T09:33:53;97203.69;;;14.37;69.70
2841;BME280;53423;49.224;12.074;2023-04-23T09:36:21;97198.47;;;14.70;69.14
2841;BME280;53423;49.224;12.074;2023-04-23T09:38:49;97209.03;;;14.70;70.00
2841;BME280;53423;49.224;12.074;2023-04-23T09:41:25;97211.81;;;14.55;69.41
2841;BME280;53423;49.224;12.074;2023-04-23T09:43:53;97207.19;;;14.97;68.80
2841;BME280;53423;49.224;12.074;2023-04-23T09:46:35;97209.22;;;14.88;68.41
2841;BME280;53423;49.224;12.074;2023-04-23T09:49:05;97197.44;;;15.17;68.27
2841;BME280;53423;49.224;12.074;2023-04-23T09:51:35;97188.69;;;15.16;68.60
2841;BME280;53423;49.224;12.074;2023-04-23T09:54:09;97197.63;;;15.22;67.55
2841;BME280;53423;49.224;12.074;2023-04-23T09:56:38;97197.63;;;15.22;66.52
2841;BME280;53423;49.224;12.074;2023-04-23T09:59:21;97203.94;;;14.75;70.50
2841;BME280;53423;49.224;12.074;2023-04-23T10:02:10;97204.75;;;14.82;70.13
2841;BME280;53423;49.224;12.074;2023-04-23T10:04:40;97202.72;;;14.97;69.21
2841;BME280;53423;49.224;12.074;2023-04-23T10:07:08;97204.94;;;14.87;68.55
2841;BME280;53423;49.224;12.074;2023-04-23T10:09:46;97207.97;;;14.51;70.29
2841;BME280;53423;49.224;12.074;2023-04-23T10:12:14;97219.53;;;14.50;69.97
2841;BME280;53423;49.224;12.074;2023-04-23T10:15:04;97215.06;;;14.64;69.08
2841;BME280;53423;49.224;12.074;2023-04-23T10:17:33;97208.59;;;14.86;68.97
2841;BME280;53423;49.224;12.074;2023-04-23T10:20:04;97211.38;;;14.39;69.16
2841;BME280;53423;49.224;12.074;2023-04-23T10:22:34;97217.56;;;14.12;71.20
2841;BME280;53423;49.224;12.074;2023-04-23T10:25:06;97219.38;;;14.11;71.24
2841;BME280;53423;49.224;12.074;2023-04-23T10:27:37;97211.31;;;14.19;71.22
2841;BME280;53423;49.224;12.074;2023-04-23T10:30:19;97202.09;;;14.69;69.79
2841;BME280;53423;49.224;12.074;2023-04-23T10:32:48;97201.09;;;14.83;69.60
2841;BME280;53423;49.224;12.074;2023-04-23T10:35:17;97209.75;;;14.31;70.79
2841;BME280;53423;49.224;12.074;2023-04-23T10:37:46;97203.72;;;14.63;70.02
2841;BME280;53423;49.224;12.074;2023-04-23T10:40:18;97198.47;;;14.76;69.70
2841;BME280;53423;49.224;12.074;2023-04-23T10:42:48;97193.78;;;14.59;69.72
2841;BME280;53423;49.224;12.074;2023-04-23T10:45:18;97202.28;;;14.54;69.72
2841;BME280;53423;49.224;12.074;2023-04-23T10:47:52;97195.81;;;14.83;68.52
2841;BME280;53423;49.224;12.074;2023-04-23T10:50:23;97197.22;;;14.92;68.54
2841;BME280;53423;49.224;12.074;2023-04-23T10:52:52;97201.69;;;15.11;67.85
2841;BME280;53423;49.224;12.074;2023-04-23T10:55:21;97196.00;;;15.34;67.31
2841;BME280;53423;49.224;12.074;2023-04-23T10:58:01;97200.06;;;14.90;69.30
2841;BME280;53423;49.224;12.074;2023-04-23T11:00:42;97191.53;;;14.82;69.45
2841;BME280;53423;49.224;12.074;2023-04-23T11:03:31;97200.06;;;14.84;68.31
2841;BME280;53423;49.224;12.074;2023-04-23T11:06:01;97190.34;;;14.78;69.01
2841;BME280;53423;49.224;12.074;2023-04-23T11:08:30;97187.69;;;14.98;68.13
2841;BME280;53423;49.224;12.074;2023-04-23T11:10:59;97191.97;;;14.72;67.57
2841;BME280;53423;49.224;12.074;2023-04-23T11:13:29;97191.94;;;14.92;68.68
2841;BME280;53423;49.224;12.074;2023-04-23T11:16:16;97179.75;;;15.43;67.27
2841;BME280;53423;49.224;12.074;2023-04-23T11:18:55;97184.72;;;15.77;66.35
2841;BME280;53423;49.224;12.074;2023-04-23T11:21:58;97189.06;;;16.03;66.67
2841;BME280;53423;49.224;12.074;2023-04-23T11:24:28;97175.13;;;15.83;65.96
2841;BME280;53423;49.224;12.074;2023-04-23T11:26:56;97179.91;;;16.12;65.13
2841;BME280;53423;49.224;12.074;2023-04-23T11:29:25;97171.88;;;16.25;65.80
2841;BME280;53423;49.224;12.074;2023-04-23T11:31:54;97168.41;;;16.87;61.38
2841;BME280;53423;49.224;12.074;2023-04-23T11:34:25;97162.91;;;17.74;60.93
2841;BME280;53423;49.224;12.074;2023-04-23T11:36:53;97163.84;;;18.56;56.37
2841;BME280;53423;49.224;12.074;2023-04-23T11:39:23;97159.47;;;18.21;59.43
2841;BME280;53423;49.224;12.074;2023-04-23T11:41:52;97158.97;;;17.94;58.45
2841;BME280;53423;49.224;12.074;2023-04-23T11:44:20;97144.59;;;18.02;58.31
2841;BME280;53423;49.224;12.074;2023-04-23T11:46:49;97136.28;;;18.28;58.78
2841;BME280;53423;49.224;12.074;2023-04-23T11:49:17;97134.78;;;18.32;55.79
2841;BME280;53423;49.224;12.074;2023-04-23T11:51:47;97120.97;;;18.83;52.91
2841;BME280;53423;49.224;12.074;2023-04-23T11:54:15;97117.50;;;18.94;53.19
2841;BME280;53423;49.224;12.074;2023-04-23T11:56:45;97106.50;;;18.55;56.21
2841;BME280;53423;49.224;12.074;2023-04-23T11:59:13;97104.88;;;18.25;57.12
2841;BME280;53423;49.224;12.074;2023-04-23T12:01:45;97102.03;;;18.79;52.77
2841;BME280;53423;49.224;12.074;2023-04-23T12:04:15;97101.22;;;18.79;53.23
2841;BME280;53423;49.224;12.074;2023-04-23T12:06:45;97095.66;;;18.16;56.65
2841;BME280;53423;49.224;12.074;2023-04-23T12:09:15;97094.47;;;18.12;55.43
2841;BME280;53423;49.224;12.074;2023-04-23T12:11:44;97090.09;;;18.58;54.83
2841;BME280;53423;49.224;12.074;2023-04-23T12:14:13;97077.41;;;18.84;53.16
2841;BME280;53423;49.224;12.074;2023-04-23T12:16:43;97084.50;;;19.64;50.78
2841;BME280;53423;49.224;12.074;2023-04-23T12:19:13;97089.19;;;19.11;53.33
2841;BME280;53423;49.224;12.074;2023-04-23T12:21:51;97086.38;;;20.20;49.96
2841;BME280;53423;49.224;12.074;2023-04-23T12:24:21;97085.94;;;20.23;48.76
2841;BME280;53423;49.224;12.074;2023-04-23T12:26:52;97089.56;;;19.77;50.60
2841;BME280;53423;49.224;12.074;2023-04-23T12:29:22;97092.16;;;19.49;51.46
2841;BME280;53423;49.224;12.074;2023-04-23T12:31:51;97098.00;;;19.00;50.21
2841;BME280;53423;49.224;12.074;2023-04-23T12:34:20;97091.16;;;18.58;51.80
2841;BME280;53423;49.224;12.074;2023-04-23T12:36:49;97082.38;;;19.15;52.97
2841;BME280;53423;49.224;12.074;2023-04-23T12:39:26;97090.59;;;18.67;52.19
2841;BME280;53423;49.224;12.074;2023-04-23T12:41:57;97094.41;;;17.89;57.20
2841;BME280;53423;49.224;12.074;2023-04-23T12:44:28;97094.59;;;18.17;54.73
2841;BME280;53423;49.224;12.074;2023-04-23T12:46:57;97080.63;;;18.10;52.45
2841;BME280;53423;49.224;12.074;2023-04-23T12:49:26;97079.59;;;18.11;53.00
2841;BME280;53423;49.224;12.074;2023-04-23T12:51:55;97071.91;;;18.21;51.56
2841;BME280;53423;49.224;12.074;2023-04-23T12:54:28;97073.28;;;18.53;51.65
2841;BME280;53423;49.224;12.074;2023-04-23T12:56:58;97074.41;;;18.69;51.73
2841;BME280;53423;49.224;12.074;2023-04-23T12:59:27;97063.03;;;18.38;51.00
2841;BME280;53423;49.224;12.074;2023-04-23T13:01:56;97062.66;;;18.65;51.67
2841;BME280;53423;49.224;12.074;2023-04-23T13:04:28;97050.47;;;19.38;49.33
2841;BME280;53423;49.224;12.074;2023-04-23T13:06:55;97056.50;;;19.10;51.21
2841;BME280;53423;49.224;12.074;2023-04-23T13:09:23;97041.72;;;19.14;50.23
2841;BME280;53423;49.224;12.074;2023-04-23T13:11:53;97038.88;;;18.81;51.25